Time;durP1;ratioP1;P1;durP2;ratioP2;P2;SDS_P1;SDS_P2;PMS_P1;PMS_P2;Temp;Humidity;BMP_temperature;BMP_pressure;BME280_temperature;BME280_humidity;BME280_pressure;Samples;Min_cycle;Max_cycle;Signal;HPM_P1;HPM_P2
2021/04/01 00:01:25;;;;;;;33.80;27.80;;;;;;;18.26;35.30;101687.41;6232139;28;20240;-57
2021/04/01 00:04:46;;;;;;;32.03;27.53;;;;;;;18.15;35.67;101684.22;6222866;28;20229;-54
2021/04/01 00:08:06;;;;;;;36.80;29.30;;;;;;;18.16;35.48;101692.06;6238730;28;20224;-57
2021/04/01 00:11:27;;;;;;;35.03;28.30;;;;;;;18.05;35.89;101694.16;6222050;28;20623;-56
2021/04/01 00:14:48;;;;;;;31.77;27.83;;;;;;;18.03;35.96;101688.03;6234846;28;20232;-55
2021/04/01 00:18:09;;;;;;;36.73;29.17;;;;;;;18.03;36.00;101685.38;6236433;28;20244;-56
2021/04/01 00:21:30;;;;;;;34.77;28.90;;;;;;;18.03;36.04;101690.66;6239092;28;20241;-57
2021/04/01 00:24:51;;;;;;;35.77;28.90;;;;;;;18.03;36.04;101680.13;6233287;28;20240;-57
2021/04/01 00:28:11;;;;;;;36.77;28.80;;;;;;;18.01;35.84;101677.53;6230389;28;20558;-54
2021/04/01 00:31:32;;;;;;;40.90;29.47;;;;;;;17.08;37.01;101672.78;6232445;28;20307;-55
2021/04/01 00:34:52;;;;;;;33.37;28.00;;;;;;;17.73;36.62;101676.50;6226101;28;20233;-58
2021/04/01 00:38:14;;;;;;;32.80;27.07;;;;;;;17.88;36.51;101677.00;6228373;28;20231;-57
2021/04/01 00:41:34;;;;;;;39.13;28.80;;;;;;;17.94;36.47;101685.66;6234351;28;20292;-56
2021/04/01 00:44:59;;;;;;;32.33;26.73;;;;;;;18.02;36.16;101678.41;6233805;28;20771;-54
2021/04/01 00:48:20;;;;;;;33.63;26.63;;;;;;;17.88;36.88;101671.72;6234152;28;20501;-57
2021/04/01 00:51:40;;;;;;;34.53;27.30;;;;;;;17.98;36.46;101669.72;6236081;28;20280;-56
2021/04/01 00:55:02;;;;;;;32.80;28.50;;;;;;;17.95;36.98;101661.00;6225055;28;20255;-58
2021/04/01 00:58:22;;;;;;;33.43;27.73;;;;;;;18.00;36.70;101656.50;6235760;28;20232;-54
2021/04/01 01:01:45;;;;;;;35.00;28.63;;;;;;;17.97;36.35;101656.56;6227025;28;20676;-56
2021/04/01 01:05:07;;;;;;;33.17;27.37;;;;;;;17.97;36.42;101648.66;6229908;28;20506;-55
2021/04/01 01:08:28;;;;;;;33.47;27.23;;;;;;;18.06;36.28;101656.31;6229578;28;20232;-58
2021/04/01 01:11:49;;;;;;;33.60;27.20;;;;;;;17.97;36.48;101656.56;6230786;28;20256;-56
2021/04/01 01:15:12;;;;;;;35.43;26.27;;;;;;;17.86;37.19;101668.25;6233638;28;20564;-58
2021/04/01 01:18:33;;;;;;;32.67;27.80;;;;;;;17.88;36.68;101663.81;6230583;28;20232;-53
2021/04/01 01:21:53;;;;;;;32.03;26.73;;;;;;;18.00;36.73;101673.16;6221307;28;20237;-58
2021/04/01 01:25:16;;;;;;;34.37;27.03;;;;;;;17.93;36.69;101668.09;6234469;28;20221;-56
2021/04/01 01:28:37;;;;;;;33.53;27.67;;;;;;;17.96;36.57;101662.75;6231795;28;20232;-58
2021/04/01 01:31:57;;;;;;;35.57;28.90;;;;;;;17.96;36.76;101662.75;6214891;28;20232;-55
2021/04/01 01:35:21;;;;;;;35.63;29.30;;;;;;;17.94;36.52;101651.41;6234562;28;20689;-58
2021/04/01 01:38:41;;;;;;;38.47;30.00;;;;;;;17.58;36.87;101648.75;6229650;28;21653;-58
2021/04/01 01:42:03;;;;;;;34.20;29.00;;;;;;;17.56;36.96;101653.19;6223810;28;20232;-58
2021/04/01 01:45:24;;;;;;;36.37;27.57;;;;;;;17.77;36.71;101647.38;6232580;28;20787;-54
2021/04/01 01:48:44;;;;;;;36.00;28.40;;;;;;;17.79;36.82;101649.97;6231920;28;20231;-56
2021/04/01 01:52:06;;;;;;;34.53;27.87;;;;;;;17.81;37.16;101642.91;6229053;28;20224;-56
2021/04/01 01:55:28;;;;;;;32.43;26.67;;;;;;;17.81;36.94;101646.41;6222937;28;20232;-58
2021/04/01 01:58:51;;;;;;;32.63;26.63;;;;;;;17.77;37.12;101647.38;6232661;28;20232;-57
2021/04/01 02:02:11;;;;;;;35.63;28.67;;;;;;;17.83;36.98;101634.03;6205283;28;20319;-56
2021/04/01 02:05:33;;;;;;;36.47;26.87;;;;;;;17.82;37.20;101640.22;6225315;28;20689;-58
2021/04/01 02:08:57;;;;;;;33.63;27.83;;;;;;;17.88;36.80;101639.25;6228904;28;20651;-53
2021/04/01 02:12:18;;;;;;;37.10;26.90;;;;;;;17.51;37.85;101646.28;6234467;28;20504;-58
2021/04/01 02:15:40;;;;;;;37.77;30.13;;;;;;;17.63;37.76;101644.25;6228970;28;20244;-56
2021/04/01 02:19:01;;;;;;;37.43;28.60;;;;;;;17.54;37.96;101647.09;6227063;28;20232;-57
2021/04/01 02:22:21;;;;;;;36.97;29.60;;;;;;;17.81;37.00;101649.03;6231868;28;20240;-56
2021/04/01 02:25:43;;;;;;;40.20;30.83;;;;;;;17.50;37.08;101664.75;6218207;28;20239;-53
2021/04/01 02:29:04;;;;;;;42.47;31.67;;;;;;;17.58;36.74;101667.19;6227937;28;20232;-57
2021/04/01 02:32:26;;;;;;;40.73;32.90;;;;;;;17.40;36.78;101664.09;6223254;28;20240;-57
2021/04/01 02:35:46;;;;;;;42.93;37.10;;;;;;;17.46;36.72;101663.94;6223416;28;20228;-56
2021/04/01 02:39:07;;;;;;;47.33;39.83;;;;;;;16.31;38.28;101637.53;6232044;28;20241;-55
2021/04/01 02:42:27;;;;;;;48.33;36.27;;;;;;;16.29;38.90;101644.59;6224169;28;20481;-57
2021/04/01 02:45:48;;;;;;;49.87;39.33;;;;;;;16.96;38.15;101647.56;6228933;28;20240;-53
2021/04/01 02:49:09;;;;;;;44.80;37.20;;;;;;;17.29;36.97;101635.41;6234923;28;20673;-56
2021/04/01 02:52:30;;;;;;;41.80;36.83;;;;;;;17.40;36.57;101642.19;6235202;28;20259;-57
2021/04/01 02:55:50;;;;;;;43.43;36.57;;;;;;;17.40;37.29;101643.03;6231822;28;20308;-56
2021/04/01 02:59:11;;;;;;;43.27;36.33;;;;;;;17.47;36.92;101643.78;6230053;28;20315;-57
2021/04/01 03:02:32;;;;;;;44.13;35.23;;;;;;;17.62;36.63;101624.06;6227031;28;20220;-57
2021/04/01 03:05:55;;;;;;;44.73;35.63;;;;;;;17.38;36.15;101636.09;6232972;28;20272;-57
2021/04/01 03:09:16;;;;;;;50.07;43.07;;;;;;;17.29;35.97;101635.41;6226520;28;20218;-58
2021/04/01 03:12:36;;;;;;;70.40;62.67;;;;;;;17.36;36.45;101630.00;6230330;28;20598;-55
2021/04/01 03:15:56;;;;;;;81.20;72.30;;;;;;;17.37;36.62;101632.59;6228166;28;20660;-57
2021/04/01 03:19:17;;;;;;;57.60;48.27;;;;;;;17.38;36.49;101647.47;6232781;28;20320;-56
2021/04/01 03:22:39;;;;;;;49.00;37.70;;;;;;;17.39;36.02;101656.22;6229762;28;20561;-58
2021/04/01 03:25:59;;;;;;;46.70;39.57;;;;;;;17.21;37.00;101649.66;6231306;28;20228;-57
2021/04/01 03:29:20;;;;;;;47.17;38.70;;;;;;;16.84;36.56;101637.34;6239258;28;20803;-57
2021/04/01 03:32:42;;;;;;;50.47;41.87;;;;;;;16.47;36.99;101603.91;6230504;28;20228;-56
2021/04/01 03:36:04;;;;;;;49.77;39.60;;;;;;;16.78;37.28;101632.19;6222488;28;20247;-58
2021/04/01 03:39:25;;;;;;;51.00;41.13;;;;;;;17.18;36.88;101612.91;6224611;28;20298;-56
2021/04/01 03:42:46;;;;;;;47.47;37.83;;;;;;;16.97;37.38;101632.69;6234144;28;20495;-57
2021/04/01 03:46:07;;;;;;;44.20;37.00;;;;;;;17.15;37.16;101628.75;6223919;28;20281;-54
2021/04/01 03:49:27;;;;;;;45.10;39.63;;;;;;;17.10;35.57;101616.56;6231936;28;20335;-57
2021/04/01 03:52:48;;;;;;;50.93;39.90;;;;;;;16.73;36.44;101612.09;6231593;28;20598;-58
2021/04/01 03:56:09;;;;;;;48.20;37.97;;;;;;;17.02;36.55;101604.47;6232528;28;20228;-57
2021/04/01 03:59:35;;;;;;;49.37;38.77;;;;;;;16.84;36.48;101619.78;6232897;28;21042;-56
2021/04/01 04:03:04;;;;;;;48.37;39.53;;;;;;;16.56;36.31;101635.28;6234098;28;20618;-56
2021/04/01 04:06:38;;;;;;;46.43;39.67;;;;;;;15.99;36.02;101635.53;6229869;28;20221;-56
2021/04/01 04:10:09;;;;;;;48.13;38.40;;;;;;;16.16;36.40;101620.28;6230526;28;20236;-53
2021/04/01 04:13:34;;;;;;;51.17;38.87;;;;;;;15.77;36.68;101604.41;6229812;28;20236;-55
2021/04/01 04:16:54;;;;;;;46.00;37.70;;;;;;;16.11;36.21;101619.50;6226544;28;20228;-56
2021/04/01 04:20:15;;;;;;;48.57;38.80;;;;;;;16.20;36.27;101616.72;6231860;28;20325;-53
2021/04/01 04:23:38;;;;;;;46.87;36.93;;;;;;;16.06;36.46;101639.78;6239333;28;20270;-58
2021/04/01 04:27:04;;;;;;;49.37;39.97;;;;;;;16.12;36.40;101626.50;6233049;28;20224;-57
2021/04/01 04:30:27;;;;;;;52.13;41.87;;;;;;;16.13;36.06;101618.59;6232796;28;20685;-53
2021/04/01 04:33:48;;;;;;;46.63;38.93;;;;;;;16.13;36.00;101610.72;6236938;28;20576;-59
2021/04/01 04:37:08;;;;;;;52.33;40.37;;;;;;;16.18;36.23;101609.75;6234587;28;20232;-58
2021/04/01 04:40:28;;;;;;;47.73;40.03;;;;;;;16.24;36.28;101602.63;6232797;28;20315;-55
2021/04/01 04:43:49;;;;;;;51.23;41.70;;;;;;;16.37;35.27;101603.25;6232628;28;20232;-54
2021/04/01 04:47:10;;;;;;;52.33;41.57;;;;;;;16.36;35.41;101608.53;6232433;28;20236;-54
2021/04/01 04:50:30;;;;;;;51.87;40.40;;;;;;;16.18;35.62;101596.63;6232120;28;20320;-55
2021/04/01 04:53:53;;;;;;;50.87;40.20;;;;;;;16.28;35.55;101603.41;6230158;28;21302;-52
2021/04/01 04:57:16;;;;;;;52.67;41.47;;;;;;;15.91;36.04;101617.28;6227593;28;20256;-57
2021/04/01 05:00:54;;;;;;;50.77;40.60;;;;;;;15.99;35.82;101598.75;6225712;28;20311;-58
2021/04/01 05:04:40;;;;;;;50.93;41.30;;;;;;;16.09;35.95;101610.78;6235146;28;20224;-54
2021/04/01 05:08:01;;;;;;;50.83;41.13;;;;;;;15.95;36.01;101600.56;6229745;28;20533;-58
2021/04/01 05:11:21;;;;;;;52.77;43.07;;;;;;;15.99;35.92;101604.84;6227483;28;20228;-56
2021/04/01 05:14:42;;;;;;;52.43;43.40;;;;;;;15.89;35.78;101629.56;6232762;28;20552;-57
2021/04/01 05:18:14;;;;;;;53.10;43.50;;;;;;;15.80;36.21;101635.88;6228116;28;20264;-55
2021/04/01 05:21:40;;;;;;;54.27;41.87;;;;;;;15.79;36.42;101638.50;6230358;28;20236;-56
2021/04/01 05:25:02;;;;;;;56.80;44.67;;;;;;;15.73;36.28;101624.59;6225269;28;20612;-55
2021/04/01 05:28:25;;;;;;;54.67;42.73;;;;;;;15.51;36.90;101629.31;6231221;28;20571;-58
2021/04/01 05:31:48;;;;;;;57.23;42.53;;;;;;;15.65;36.16;101631.72;6225826;28;20232;-58
2021/04/01 05:35:12;;;;;;;57.13;43.90;;;;;;;15.94;35.89;101628.59;6233834;28;20241;-57
2021/04/01 05:38:34;;;;;;;57.93;43.63;;;;;;;15.82;36.11;101626.19;6230298;28;20247;-56
2021/04/01 05:41:55;;;;;;;56.23;46.07;;;;;;;16.00;36.37;101629.38;6212997;28;20791;-63
2021/04/01 05:45:20;;;;;;;58.17;44.93;;;;;;;16.11;36.31;101624.75;6227997;28;20232;-61
2021/04/01 05:48:55;;;;;;;55.03;42.57;;;;;;;16.40;35.86;101620.69;6224535;28;20255;-58
2021/04/01 05:53:03;;;;;;;52.63;41.70;;;;;;;16.16;36.57;101630.81;6236672;28;20253;-57
2021/04/01 05:57:05;;;;;;;57.90;46.90;;;;;;;16.24;35.54;101631.53;6222027;28;20707;-55
2021/04/01 06:00:39;;;;;;;52.23;43.40;;;;;;;16.17;35.90;101645.69;6224680;28;20232;-58
2021/04/01 06:04:09;;;;;;;59.40;44.40;;;;;;;15.95;36.00;101637.34;6228171;28;20224;-58
2021/04/01 06:07:37;;;;;;;60.00;46.73;;;;;;;16.27;35.88;101636.72;6228110;28;20228;-56
2021/04/01 06:10:57;;;;;;;57.90;46.53;;;;;;;16.41;35.23;101646.09;6223159;28;20637;-56
2021/04/01 06:14:35;;;;;;;57.57;45.13;;;;;;;16.25;35.42;101643.78;6224573;28;20256;-58
2021/04/01 06:18:07;;;;;;;57.60;45.27;;;;;;;16.12;35.49;101650.16;6219303;28;20228;-56
2021/04/01 06:21:29;;;;;;;53.77;43.73;;;;;;;16.06;35.89;101652.91;6227780;28;20232;-58
2021/04/01 06:24:51;;;;;;;56.03;47.10;;;;;;;16.00;36.22;101658.28;6234108;28;20244;-57
2021/04/01 06:28:13;;;;;;;59.87;46.77;;;;;;;16.09;36.01;101668.59;6230856;28;20233;-58
2021/04/01 06:31:41;;;;;;;59.20;47.73;;;;;;;15.96;36.40;101657.47;6229928;28;20244;-56
2021/04/01 06:35:10;;;;;;;57.93;47.90;;;;;;;15.96;36.77;101659.25;6231586;28;20236;-59
2021/04/01 06:38:35;;;;;;;58.53;48.00;;;;;;;15.60;37.28;101659.78;6225256;28;20319;-61
2021/04/01 06:42:05;;;;;;;63.43;48.20;;;;;;;15.70;37.47;101665.75;6230407;28;20236;-60
2021/04/01 06:45:29;;;;;;;64.50;47.70;;;;;;;15.74;37.65;101662.22;6224156;28;20247;-60
2021/04/01 06:49:20;;;;;;;65.73;49.27;;;;;;;15.48;38.15;101676.59;6233584;28;20244;-60
2021/04/01 06:52:51;;;;;;;64.43;49.33;;;;;;;15.39;38.35;101676.75;6229187;28;20236;-56
2021/04/01 06:56:19;;;;;;;63.60;47.23;;;;;;;15.03;39.27;101689.53;6227279;28;20239;-59
2021/04/01 06:59:54;;;;;;;63.07;49.13;;;;;;;15.10;39.11;101669.31;6225027;28;20636;-55
2021/04/01 07:03:20;;;;;;;64.33;50.00;;;;;;;14.99;40.04;101671.25;6230358;28;20354;-57
2021/04/01 07:06:44;;;;;;;63.17;49.87;;;;;;;15.44;38.93;101672.31;6226011;28;20327;-56
2021/04/01 07:10:12;;;;;;;80.60;46.43;;;;;;;15.39;39.65;101658.38;6223405;28;20585;-54
2021/04/01 07:13:39;;;;;;;65.57;48.93;;;;;;;15.49;38.86;101672.22;6225266;28;20225;-52
2021/04/01 07:17:09;;;;;;;65.23;52.57;;;;;;;15.44;39.68;101680.19;6225244;28;20245;-53
2021/04/01 07:20:37;;;;;;;67.87;50.93;;;;;;;15.40;40.13;101673.25;6224214;28;20252;-58
2021/04/01 07:46:31;;;;;;;66.17;53.03;;;;;;;16.03;38.81;101679.22;6229554;28;20361;-59
2021/04/01 07:49:53;;;;;;;70.50;51.83;;;;;;;15.40;40.48;101682.88;6230398;28;20678;-60
2021/04/01 07:53:22;;;;;;;62.83;49.53;;;;;;;15.44;40.74;101698.56;6236317;28;20240;-58
2021/04/01 07:56:48;;;;;;;66.70;50.10;;;;;;;15.80;40.50;101698.00;6224035;28;20678;-58
2021/04/01 08:00:15;;;;;;;63.27;50.70;;;;;;;15.91;40.72;101710.06;6226514;28;21907;-60
2021/04/01 08:07:22;;;;;;;59.07;45.50;;;;;;;16.04;41.79;101710.72;6220132;28;20677;-57
2021/04/01 08:10:43;;;;;;;52.67;43.97;;;;;;;15.88;42.86;101728.53;6218176;28;20236;-60
2021/04/01 08:14:09;;;;;;;50.57;42.20;;;;;;;15.93;43.21;101731.91;6223955;28;20232;-58
2021/04/01 08:17:38;;;;;;;56.60;42.60;;;;;;;15.38;45.37;101743.25;6221224;28;20630;-63
2021/04/01 08:21:01;;;;;;;56.20;43.13;;;;;;;16.03;44.35;101727.41;6227438;28;20228;-60
2021/04/01 08:24:24;;;;;;;54.50;40.50;;;;;;;16.38;43.11;101727.63;6217778;28;20233;-57
2021/04/01 08:27:52;;;;;;;56.50;40.77;;;;;;;16.51;42.64;101731.78;6219488;28;20236;-58
2021/04/01 08:34:49;;;;;;;46.00;38.07;;;;;;;16.09;43.18;101750.94;6223507;28;20879;-61
2021/04/01 08:38:12;;;;;;;42.17;32.97;;;;;;;16.28;41.74;101754.09;6222528;28;20252;-60
2021/04/01 08:41:47;;;;;;;38.60;33.07;;;;;;;15.94;42.08;101759.94;6219328;28;20240;-58
2021/04/01 08:45:27;;;;;;;34.40;28.70;;;;;;;16.53;41.11;101758.91;6220608;28;20229;-56
2021/04/01 08:49:19;;;;;;;35.80;29.70;;;;;;;15.97;42.13;101752.91;6224058;28;20240;-58
2021/04/01 08:53:08;;;;;;;32.97;27.93;;;;;;;16.19;42.34;101770.03;6221757;28;20408;-55
2021/04/01 08:56:35;;;;;;;34.73;28.80;;;;;;;16.55;41.20;101778.16;6228054;28;20228;-58
2021/04/01 09:00:03;;;;;;;36.17;27.63;;;;;;;16.45;41.16;101776.59;6227402;28;20225;-60
2021/04/01 09:03:31;;;;;;;40.17;28.73;;;;;;;16.43;41.93;101792.38;6212045;28;20241;-61
2021/04/01 09:06:54;;;;;;;30.77;26.17;;;;;;;17.23;41.77;101795.25;6222753;28;20302;-58
2021/04/01 09:10:18;;;;;;;33.17;26.83;;;;;;;17.45;40.83;101788.63;6220004;28;21094;-58
2021/04/01 09:13:45;;;;;;;28.63;24.20;;;;;;;17.06;41.50;101799.13;6218583;28;20319;-59
2021/04/01 09:17:10;;;;;;;30.50;25.97;;;;;;;17.48;41.07;101783.28;6221153;28;20229;-59
2021/04/01 09:20:31;;;;;;;26.83;21.63;;;;;;;18.15;40.14;101785.25;6225811;28;20252;-58
2021/04/01 09:23:56;;;;;;;26.77;21.23;;;;;;;18.09;39.95;101795.94;6229069;28;20877;-61
2021/04/01 09:27:17;;;;;;;23.93;19.73;;;;;;;18.02;40.12;101789.09;6212501;28;20228;-54
2021/04/01 09:30:40;;;;;;;24.23;19.67;;;;;;;18.54;39.15;101790.38;6220657;28;20680;-58
2021/04/01 09:34:02;;;;;;;21.20;17.33;;;;;;;18.17;39.48;101799.25;6220997;28;20256;-57
2021/04/01 09:37:23;;;;;;;19.33;16.73;;;;;;;17.75;41.08;101806.41;6219954;28;20682;-55
2021/04/01 09:40:45;;;;;;;21.50;18.50;;;;;;;17.95;41.07;101803.31;6219149;28;20232;-58
2021/04/01 09:44:08;;;;;;;20.50;15.90;;;;;;;18.63;39.67;101800.69;6219953;28;20240;-58
2021/04/01 09:47:35;;;;;;;18.67;14.17;;;;;;;18.49;39.52;101810.72;6218002;28;20228;-55
2021/04/01 09:51:00;;;;;;;13.33;10.87;;;;;;;18.91;39.15;101801.72;6227703;28;20622;-69
2021/04/01 09:54:20;;;;;;;13.17;11.50;;;;;;;19.18;39.81;101800.94;6213024;28;20243;-70
2021/04/01 09:57:45;;;;;;;13.13;10.00;;;;;;;18.46;39.17;101821.38;6219360;28;20456;-68
2021/04/01 10:01:26;;;;;;;9.52;8.43;;;;;;;18.20;40.56;101819.38;6217734;28;20316;-70
2021/04/01 10:04:51;;;;;;;12.45;10.20;;;;;;;17.13;42.30;101837.53;6221018;28;20433;-67
2021/04/01 10:08:12;;;;;;;12.57;9.13;;;;;;;17.23;43.24;101840.84;6218267;28;20228;-68
2021/04/01 10:11:39;;;;;;;10.27;9.20;;;;;;;18.47;40.86;101836.28;6218634;28;20241;-68
2021/04/01 10:15:02;;;;;;;13.40;9.33;;;;;;;19.15;39.02;101827.41;6219083;28;20486;-70
2021/04/01 10:18:29;;;;;;;10.73;8.50;;;;;;;18.76;38.92;101842.56;6215707;28;20687;-69
2021/04/01 10:21:49;;;;;;;10.17;8.13;;;;;;;17.67;41.51;101862.75;6222976;28;20625;-57
2021/04/01 10:25:15;;;;;;;14.83;8.37;;;;;;;16.36;44.26;101868.75;6221981;28;20273;-60
2021/04/01 10:28:40;;;;;;;8.57;6.50;;;;;;;16.34;44.73;101879.28;6219655;28;20236;-59
2021/04/01 10:32:05;;;;;;;10.33;7.50;;;;;;;16.11;45.39;101887.53;6226707;28;20240;-60
2021/04/01 10:35:29;;;;;;;10.83;6.77;;;;;;;15.35;47.23;101895.50;6222187;28;20240;-59
2021/04/01 10:38:52;;;;;;;14.37;7.63;;;;;;;15.26;48.09;101903.53;6217612;28;20236;-57
2021/04/01 10:42:14;;;;;;;8.77;6.57;;;;;;;15.48;46.88;101906.75;6218237;28;20229;-57
2021/04/01 10:45:36;;;;;;;11.83;7.63;;;;;;;15.39;46.86;101902.47;6221426;28;20243;-56
2021/04/01 10:49:01;;;;;;;6.37;5.67;;;;;;;15.40;46.78;101904.22;6227927;28;20228;-57
2021/04/01 10:52:23;;;;;;;9.03;6.17;;;;;;;15.30;46.90;101905.22;6231784;28;20551;-57
2021/04/01 10:55:44;;;;;;;6.93;5.03;;;;;;;15.45;46.42;101912.91;6231068;28;20700;-56
2021/04/01 10:59:05;;;;;;;7.17;5.10;;;;;;;15.54;45.93;101918.03;6224045;28;20245;-60
2021/04/01 11:02:35;;;;;;;6.40;4.20;;;;;;;15.59;45.49;101920.63;6220282;28;20241;-58
2021/04/01 11:05:57;;;;;;;7.77;5.23;;;;;;;15.35;46.67;101933.16;6223162;28;20657;-68
2021/04/01 11:09:19;;;;;;;6.57;4.13;;;;;;;15.61;45.68;101936.34;6211692;28;20240;-53
2021/04/01 11:12:45;;;;;;;4.03;3.43;;;;;;;15.66;44.85;101931.91;6221291;28;20521;-51
2021/04/01 11:16:07;;;;;;;4.53;3.23;;;;;;;15.48;44.62;101935.63;6223597;28;20259;-56
2021/04/01 11:19:30;;;;;;;3.10;2.70;;;;;;;15.20;44.79;101941.19;6217938;28;20622;-56
2021/04/01 11:23:02;;;;;;;3.20;2.87;;;;;;;15.29;45.10;101933.19;6228058;28;20229;-54
2021/04/01 11:26:27;;;;;;;3.80;2.63;;;;;;;14.94;46.06;101944.06;6222319;28;20252;-56
2021/04/01 11:29:53;;;;;;;3.40;3.10;;;;;;;14.95;46.51;101941.41;6220859;28;20255;-55
2021/04/01 11:33:14;;;;;;;4.80;3.60;;;;;;;15.15;46.39;101948.22;6225166;28;20232;-56
2021/04/01 11:36:40;;;;;;;4.10;3.70;;;;;;;15.89;44.53;101937.75;6222627;28;20233;-57
2021/04/01 11:40:04;;;;;;;5.43;3.70;;;;;;;16.59;43.29;101948.13;6222844;28;20762;-54
2021/04/01 11:43:30;;;;;;;4.77;3.63;;;;;;;19.45;36.81;101936.59;6221683;28;20244;-57
2021/04/01 11:46:50;;;;;;;3.47;3.00;;;;;;;21.96;31.82;101933.50;6224709;28;20527;-57
2021/04/01 11:50:12;;;;;;;3.57;2.80;;;;;;;24.81;27.29;101941.22;6227825;28;20233;-59
2021/04/01 11:53:33;;;;;;;5.40;3.80;;;;;;;23.78;27.90;101934.63;6231655;28;20224;-56
2021/04/01 11:56:53;;;;;;;4.18;2.97;;;;;;;25.25;25.32;101925.59;6232177;28;20256;-53
2021/04/01 12:00:21;;;;;;;2.60;2.40;;;;;;;24.63;25.43;101922.56;6229439;28;20237;-55
2021/04/01 12:03:50;;;;;;;4.63;2.35;;;;;;;22.55;27.62;101913.50;6225418;28;20237;-55
2021/04/01 12:07:11;;;;;;;2.80;2.35;;;;;;;19.60;32.30;101934.41;6230204;28;20224;-55
2021/04/01 12:10:32;;;;;;;2.95;2.58;;;;;;;20.30;32.63;101935.84;6230258;28;20854;-54
2021/04/01 12:13:52;;;;;;;2.95;2.55;;;;;;;17.97;37.28;101938.53;6230330;28;20236;-51
2021/04/01 12:17:14;;;;;;;3.47;2.90;;;;;;;19.55;35.12;101949.53;6235469;28;20323;-54
2021/04/01 12:20:37;;;;;;;2.65;2.45;;;;;;;23.47;27.83;101947.63;6230645;28;20613;-54
2021/04/01 12:24:02;;;;;;;2.78;2.58;;;;;;;21.54;30.09;101944.88;6234266;28;20236;-57
2021/04/01 12:27:28;;;;;;;2.97;2.28;;;;;;;24.90;26.16;101943.41;6195338;28;20864;-56
2021/04/01 12:30:51;;;;;;;2.17;1.98;;;;;;;22.54;28.63;101937.44;6228004;28;20249;-55
2021/04/01 12:34:23;;;;;;;4.47;2.40;;;;;;;20.26;31.30;101946.53;6226368;28;20221;-56
2021/04/01 12:37:55;;;;;;;1.60;1.50;;;;;;;17.69;35.53;101953.16;6229818;28;20625;-55
2021/04/01 12:41:25;;;;;;;2.17;1.90;;;;;;;17.01;37.03;101961.47;6227276;28;20228;-53
2021/04/01 12:44:45;;;;;;;2.47;1.90;;;;;;;16.65;37.91;101966.44;6226141;28;20239;-54
2021/04/01 12:48:09;;;;;;;1.50;1.40;;;;;;;16.04;39.88;101960.34;6223009;28;20619;-54
2021/04/01 12:51:42;;;;;;;2.67;1.77;;;;;;;15.62;40.49;101983.56;6216525;28;20306;-57
2021/04/01 12:55:02;;;;;;;1.60;1.50;;;;;;;15.47;41.67;101995.16;6222191;28;21547;-55
2021/04/01 12:58:35;;;;;;;2.90;1.90;;;;;;;15.83;41.52;101995.63;6225398;28;20236;-56
2021/04/01 13:02:01;;;;;;;2.90;1.73;;;;;;;16.06;42.98;101997.97;6224001;28;20315;-64
2021/04/01 13:05:22;;;;;;;1.90;1.40;;;;;;;15.82;43.16;102007.03;6226306;28;20225;-63
2021/04/01 13:08:52;;;;;;;4.17;1.80;;;;;;;16.04;43.38;102012.03;6224123;28;20622;-63
2021/04/01 13:12:14;;;;;;;1.60;1.50;;;;;;;16.17;43.31;102020.59;6220141;28;20228;-64
2021/04/01 13:15:35;;;;;;;1.83;1.37;;;;;;;16.22;42.32;102027.53;6217255;28;20236;-65
2021/04/01 13:18:55;;;;;;;2.07;1.80;;;;;;;15.58;42.78;102036.16;6217427;28;20228;-65
2021/04/01 13:22:22;;;;;;;2.10;1.30;;;;;;;15.20;45.32;102033.03;6209320;28;20228;-64
2021/04/01 13:25:45;;;;;;;4.37;1.57;;;;;;;15.35;44.67;102042.50;6210669;28;20224;-65
2021/04/01 13:29:07;;;;;;;3.90;1.50;;;;;;;15.33;43.95;102052.13;6217164;28;20622;-63
2021/04/01 13:32:32;;;;;;;3.07;1.50;;;;;;;14.98;44.49;102061.19;6221070;28;20228;-66
2021/04/01 13:35:57;;;;;;;3.00;1.40;;;;;;;14.69;45.78;102075.34;6211994;28;20541;-72
2021/04/01 13:39:20;;;;;;;4.70;1.40;;;;;;;14.63;43.88;102085.88;6219748;28;20232;-70
2021/04/01 13:42:49;;;;;;;3.33;2.30;;;;;;;14.77;42.98;102070.94;6224949;28;20232;-72
2021/04/01 13:46:10;;;;;;;1.47;1.33;;;;;;;14.32;43.61;102095.63;6228917;28;20220;-70
2021/04/01 13:49:31;;;;;;;2.37;1.50;;;;;;;14.15;43.06;102085.19;6213676;28;20339;-71
2021/04/01 13:52:59;;;;;;;2.03;1.50;;;;;;;14.27;43.03;102077.31;6224736;28;20232;-71
2021/04/01 13:56:26;;;;;;;0.73;0.73;;;;;;;14.22;42.89;102086.94;6224639;28;20250;-70
2021/04/01 14:00:02;;;;;;;5.47;2.37;;;;;;;14.69;41.53;102080.59;6226765;28;20355;-70
2021/04/01 14:03:54;;;;;;;1.57;1.30;;;;;;;14.34;42.83;102086.88;6212161;28;20236;-71
2021/04/01 14:10:58;;;;;;;2.47;1.80;;;;;;;14.33;42.49;102079.91;6232528;28;20233;-71
2021/04/01 14:14:19;;;;;;;3.50;1.37;;;;;;;14.59;42.32;102078.91;6226455;28;20243;-72
2021/04/01 14:17:40;;;;;;;2.70;1.77;;;;;;;14.87;41.47;102076.09;6228526;28;20232;-70
2021/04/01 14:21:02;;;;;;;2.00;1.40;;;;;;;14.56;45.00;102086.78;6223162;28;20323;-73
2021/04/01 14:24:26;;;;;;;4.53;1.40;;;;;;;14.68;43.54;102084.13;6216974;28;20228;-76
2021/04/01 14:27:49;;;;;;;3.07;1.83;;;;;;;15.18;43.05;102081.13;6218155;28;20256;-69
2021/04/01 14:31:11;;;;;;;4.33;1.50;;;;;;;15.14;43.09;102081.19;6218746;28;20307;-69
2021/04/01 14:34:34;;;;;;;2.07;1.27;;;;;;;15.31;41.54;102078.38;6224366;28;20240;-74
2021/04/01 14:37:59;;;;;;;6.03;2.27;;;;;;;15.06;42.17;102072.50;6222580;28;20509;-73
2021/04/01 14:41:24;;;;;;;2.77;1.93;;;;;;;15.14;42.52;102080.28;6229346;28;21517;-71
2021/04/01 14:44:44;;;;;;;2.90;1.70;;;;;;;15.28;41.44;102077.56;6226813;28;20232;-74
2021/04/01 14:48:06;;;;;;;2.20;1.20;;;;;;;15.24;39.34;102075.88;6239507;28;20236;-73
2021/04/01 14:51:28;;;;;;;1.63;1.40;;;;;;;14.34;42.14;102073.75;6235993;28;20233;-74
2021/04/01 14:54:48;;;;;;;2.47;2.00;;;;;;;15.59;41.18;102067.66;6233504;28;20252;-74
2021/04/01 14:58:10;;;;;;;2.80;1.77;;;;;;;15.69;39.58;102057.91;6233314;28;20229;-71
2021/04/01 15:01:31;;;;;;;3.43;2.80;;;;;;;15.25;40.92;102082.84;6231388;28;20229;-69
2021/04/01 15:04:54;;;;;;;4.33;3.17;;;;;;;14.91;40.04;102072.63;6231217;28;21790;-54
2021/04/01 15:08:16;;;;;;;1.70;1.50;;;;;;;14.56;40.46;102068.44;6232540;28;20259;-54
2021/04/01 15:11:39;;;;;;;3.53;1.87;;;;;;;13.90;41.72;102080.06;6237131;28;20229;-53
2021/04/01 15:15:00;;;;;;;3.20;1.67;;;;;;;13.68;41.98;102075.75;6237558;28;20232;-51
2021/04/01 15:18:23;;;;;;;2.97;1.73;;;;;;;13.59;42.41;102085.34;6226676;28;20513;-53
2021/04/01 15:21:44;;;;;;;1.93;1.73;;;;;;;13.41;42.51;102085.34;6231352;28;20260;-55
2021/04/01 15:25:07;;;;;;;2.07;1.20;;;;;;;13.38;42.88;102095.84;6231013;28;20232;-54
2021/04/01 15:28:27;;;;;;;1.90;1.53;;;;;;;13.31;42.86;102092.34;6235391;28;20237;-54
2021/04/01 15:31:48;;;;;;;2.17;1.53;;;;;;;13.15;43.43;102091.44;6234505;28;20304;-53
2021/04/01 15:35:10;;;;;;;3.40;2.10;;;;;;;13.48;43.09;102094.09;6235556;28;20225;-53
2021/04/01 15:38:31;;;;;;;2.43;1.90;;;;;;;13.36;42.98;102085.38;6238643;28;20240;-53
2021/04/01 15:41:52;;;;;;;3.60;2.73;;;;;;;13.19;43.34;102093.19;6237404;28;20241;-55
2021/04/01 15:45:13;;;;;;;1.47;1.37;;;;;;;13.26;43.16;102090.56;6241475;28;20228;-51
2021/04/01 15:48:35;;;;;;;1.00;1.00;;;;;;;12.97;43.88;102104.50;6232230;28;20229;-51
2021/04/01 15:51:55;;;;;;;1.97;1.27;;;;;;;13.29;43.69;102099.28;6234483;28;20244;-48
2021/04/01 15:55:16;;;;;;;1.30;1.20;;;;;;;13.13;43.78;102090.56;6241966;28;20225;-53
2021/04/01 15:58:37;;;;;;;2.73;1.23;;;;;;;13.06;44.00;102098.41;6241966;28;20254;-52
2021/04/01 16:01:57;;;;;;;1.47;1.37;;;;;;;13.16;43.59;102100.16;6241567;28;20711;-51
2021/04/01 16:05:18;;;;;;;1.53;1.27;;;;;;;12.91;44.17;102100.16;6233714;28;20243;-51
2021/04/01 16:08:39;;;;;;;1.40;1.27;;;;;;;12.83;44.29;102112.31;6242410;28;20256;-52